Wednesday, August 15, 2018, 11:59 PM EDT
Back to Local

KPIT, Greater Pittsburgh International

Location: Coraopolis, PA, United States Lat: 40.483
Local Time: 11:59 PM EDT ( 3:59 GMT) Lon: -80.233
Time Zone: US/Eastern Elev: 1204 ft

Show me the last for .
Show Decoded

2018-08-15 22:51 METAR KPIT 160251Z 18003KT 10SM OVC220 23/21 A3007 RMK AO2 SLP182 T02280206
                 51006 =
2018-08-15 21:51 METAR KPIT 160151Z 18003KT 10SM OVC220 23/20 A3007 RMK AO2 SLP182 T02330200 =
2018-08-15 20:51 METAR KPIT 160051Z 21004KT 10SM OVC220 25/20 A3006 RMK AO2 SLP178 T02500200 =
2018-08-15 19:51 METAR KPIT 152351Z 21005KT 10SM OVC220 26/19 A3005 RMK AO2 SLP177 T02610194
                 10283 20261 55000 =
2018-08-15 18:51 METAR KPIT 152251Z 21004KT 10SM OVC220 27/19 A3005 RMK AO2 SLP175 T02670194 =
2018-08-15 17:51 METAR KPIT 152151Z 24005KT 10SM FEW047 OVC220 27/19 A3005 RMK AO2 SLP175
                 T02720189 =
2018-08-15 16:51 METAR KPIT 152051Z 25006KT 10SM FEW043 FEW130 OVC220 28/18 A3005 RMK AO2 SLP176
                 T02780183 56005 =
2018-08-15 15:51 METAR KPIT 151951Z 25008KT 10SM SCT038 SCT130 OVC220 27/18 A3006 RMK AO2 SLP177
                 T02720183 =
2018-08-15 14:51 METAR KPIT 151851Z 25007KT 10SM SCT033 SCT150 OVC220 27/20 A3007 RMK AO2 SLP180
                 T02720200 =
2018-08-15 13:51 METAR KPIT 151751Z 26007KT 10SM SCT029 SCT150 OVC220 26/20 A3007 RMK AO2 SLP182
                 T02610200 10267 20183 58001 =
2018-08-15 12:51 METAR KPIT 151651Z 22006KT 10SM FEW030 FEW150 OVC200 26/20 A3007 RMK AO2 SLP183
                 T02560200 =
2018-08-15 11:51 METAR KPIT 151551Z 23007KT 10SM FEW030 FEW150 OVC220 25/20 A3008 RMK AO2 SLP183
                 T02500200 =
2018-08-15 10:51 METAR KPIT 151451Z 25005KT 10SM FEW150 OVC250 25/21 A3007 RMK AO2 SLP182
                 T02500211 51009 =
2018-08-15 09:51 METAR KPIT 151351Z 24003KT 10SM SCT250 22/21 A3007 RMK AO2 SLP181 T02220206 =
2018-08-15 08:51 METAR KPIT 151251Z 25004KT 10SM SCT250 20/19 A3006 RMK AO2 SLP179 T02000189 =
2018-08-15 07:51 METAR KPIT 151151Z 00000KT 7SM SCT250 18/18 A3005 RMK AO2 SLP176 70050 T01830183
                 10189 20178 53012 =
2018-08-15 06:51 METAR KPIT 151051Z 00000KT 7SM BKN250 18/18 A3004 RMK AO2 SLP172 T01780178 =
2018-08-15 05:51 METAR KPIT 150951Z 00000KT 9SM SCT250 18/18 A3002 RMK AO2 SLP167 T01830178 =
2018-08-15 04:51 METAR KPIT 150851Z 00000KT 9SM SCT250 18/18 A3001 RMK AO2 SLP164 T01780178 55001
                 =
2018-08-15 03:51 METAR KPIT 150751Z 25003KT 9SM SCT250 18/18 A3001 RMK AO2 SLP162 T01830178 =
2018-08-15 02:51 METAR KPIT 150651Z 27003KT 9SM FEW250 18/18 A3000 RMK AO2 SLP160 T01830183 =
2018-08-15 01:51 METAR KPIT 150551Z 00000KT 8SM FEW250 18/18 A3001 RMK AO2 SLP164 T01830183 10217
                 20183 50003 =
2018-08-15 00:51 METAR KPIT 150451Z 00000KT 10SM SCT250 19/19 A3001 RMK AO2 SLP164 T01890189
                 402500167 =

Support USWX by starting your Amazon purchase here.